Green Rock, Illinois
Current Conditions -  °F | °C
As of 1:52 AM on Saturday 25 Oct 2014 (Local Time) from KMLI Reporting Station
Moderate Fog Moderate Fog  
Wind Chill: 51°   Ceiling: 200
Heat Index: 51°   Visibility: 0mi
Dew Point: 49°   Wind: 0mph
Humidity: 92%   Direction: NA
Pressure: 29.93"   Gusts: NA
Location:  41.4426°N, 90.3628°W
Report Text: KMLI 250652Z AUTO 00000KT M1/4SM R09/0700V1000FT FG VV002 11/09 A2993 RMK AO2 SLP133 T01060094
Loading
Personal Weather Stations






























Interactive Weather Map
Tropical Storm Tracking
New forecast layout! Learn more

10-Day Weather Forecast

Advertisements
Track Severe Weather on mobile